Airfield :
LOGIN :

Register | Disclaimer

   EN    FR    IT 

 










Legend :    VFR   Marginal VFR   IFR   Intensive IFR   Very Intensive IFR
Visi :
Ceiling :
>= 8 km
>= 3000ft
5 to 8 km
1000 to 3000 ft
1500m to 5 km
500 to 1000 ft
800 to 1500m
200 to 500 ft
< 800m
< 200 ft
Symbols :   Thunderstorms  Fog  Heavy snow  Heavy precipitations  Wind > 20 kt
SIGMETs :     Misc.  Thunderstorms  Icing  Turbulence  Mountain Waves  Volcanic Ashes







- Airport Elevation : 468 ft
- IATA code : GRO


LEGE - Girona Costa Brava

CURRENT METAR :
  • 220230Z 00000KT 6000 FEW085 11/11 Q1017

EXPIRED METARs :
  • 220200Z VRB02KT 4000 BR FEW085 11/10 Q1017
  • 220130Z 00000KT 4000 BR FEW085 12/11 Q1017
  • 220100Z 04003KT 4000 BR FEW085 12/11 Q1017
  • 220030Z 00000KT 4000 BR FEW085 13/12 Q1017
  • 220000Z 00000KT 7000 FEW085 13/12 Q1017

TAF TAF LEGE
Valid from the 22 at 00:00 until the 23 at 00:00 UTC


212300Z 2200/2224 VRB03KT 9999 FEW025 TX25/2213Z TN12/2206Z
PROB30
TEMPO 2200/2206 3000 BR BKN014
BECMG 2208/2210 18010KT
PROB30
TEMPO 2213/2218 18015G25KT FEW050TCU
BECMG 2218/2220 VRB04KT
No reported NOTAMs for that airfield.



MET'MAP, your aeronautical weather chart ! - Copyright ORBIFLY December 2007 - Disclaimer

ORBIFLY MET'MAP TEAM :

Programming & Development : Alexandra Zaïnal
Concept & Development : Baudouin d'Aumeries
Co-Development & Prog : Marc-Olivier Méhu
Technical & hardware support : Manuel Goepfert

Contact : metmap@orbifly.com




SOURCES & CREDITS :

   NOAA